Terminal Aerodrome Forecast
Issued by NWS Cleveland, OH

Home | Current Version | Previous Version | Graphics & Text | Print | Product List | Glossary On
Versions: 1 2 3 4 5 6 7 8 9 10 11 12 13 14 15 16
154
FTUS41 KCLE 051720
TAFTOL
TAF
KTOL 051720Z 0518/0618 22010KT P6SM OVC025
     FM060000 18003KT P6SM SCT025 BKN150
      TEMPO 0600/0604 BKN025
     FM060400 12003KT P6SM SCT012 BKN120
     FM061000 08007KT P6SM SCT012 OVC045
      TEMPO 0612/0616 BKN012
     FM061600 08008KT 5SM -RA BR OVC012=

USA.gov is the U.S. government's official web portal to all federal, state and local government web resources and services.